METAR AND TAF INFORMATION
METAR FOR KUIL
ADDS - METARS form results

(2330 UTC 20 March 2019)
Data provider http://aviationweather.gov/metar/data/
 
METAR text: KUIL 202253Z AUTO 07007KT 10SM CLR 26/M02 A2979 RMK AO2 SLP087 T02611017 $
Conditions at: KUIL (QUILLAYUTE , WA, US) observed 2253 UTC 20 March 2019
Temperature: 26.1°C (79°F)
Dewpoint: -1.7°C (29°F) [RH = 16%]
Pressure (altimeter): 29.79 inches Hg (1008.9 mb)
[Sea-level pressure: 1008.7 mb]
Winds: from the ENE (70 degrees) at 8 MPH (7 knots; 3.6 m/s)
Visibility: 10 or more miles (16+ km)
Ceiling: at least 12,000 feet AGL
Clouds: sky clear below 12,000 feet AGL
Weather:
SOME DATA ABOVE MAY BE INACCURATE!!!
"$" is an indication the sensor requires maintenance

 AIRPORT MAP

 RUNWAY INFORMATION
Runway 04 Runway length 4210 ft Runway width 100 ft
Runway elevation 175 ft Runway displaced threshold 0 ft Runway heading 58
Runway 22 Runway length 4210 ft Runway width 100 ft
Runway elevation 194 ft Runway displaced threshold 1089 ft Runway heading 238

 AIRPORT FREQUENCIES
Type ASOS Name ASOS Frequency 135.225 MHZ
Type CTAF Name CTAF Frequency 122.9 MHZ

 AIRPORT NEAR NAVIGATION AIDS



Powered by Virtual Airlines Manager [v2.6.2]